Terminal Aerodrome Forecast
Issued by NWS

Home | Current Version | Previous Version | Text Only | Print | Product List | Glossary On
Versions: 1 2 3 4 5 6 7 8 9 10 11 12 13 14 15 16 17 18 19 20 21
000
FTAK31 PANC 220258 AAA
TAFAGK
TAF AMD
PAGK 220258Z 2203/2224 VRB04KT P6SM SCT060 OVC120
     FM221700 15008KT 5SM -SHSN BKN030 OVC050=

USA.gov is the U.S. government's official web portal to all federal, state and local government web resources and services.